sensor_id;sensor_type;location;lat;lon;timestamp;P1;durP1;ratioP1;P2;durP2;ratioP2
48765;SDS011;65794;51.836;5.002;2023-03-14T00:01:10;13.82;;;2.00;;
48765;SDS011;65794;51.836;5.002;2023-03-14T00:03:37;15.40;;;2.45;;
48765;SDS011;65794;51.836;5.002;2023-03-14T00:06:05;16.52;;;2.22;;
48765;SDS011;65794;51.836;5.002;2023-03-14T00:08:32;9.13;;;1.90;;
48765;SDS011;65794;51.836;5.002;2023-03-14T00:11:06;16.25;;;2.13;;
48765;SDS011;65794;51.836;5.002;2023-03-14T00:13:33;11.98;;;1.92;;
48765;SDS011;65794;51.836;5.002;2023-03-14T00:16:18;13.02;;;2.33;;
48765;SDS011;65794;51.836;5.002;2023-03-14T00:18:46;9.15;;;1.83;;
48765;SDS011;65794;51.836;5.002;2023-03-14T00:21:12;7.13;;;0.98;;
48765;SDS011;65794;51.836;5.002;2023-03-14T00:23:40;6.10;;;1.05;;
48765;SDS011;65794;51.836;5.002;2023-03-14T00:26:08;6.72;;;1.48;;
48765;SDS011;65794;51.836;5.002;2023-03-14T00:28:36;10.73;;;1.45;;
48765;SDS011;65794;51.836;5.002;2023-03-14T00:31:08;11.80;;;1.30;;
48765;SDS011;65794;51.836;5.002;2023-03-14T00:33:35;11.75;;;1.67;;
48765;SDS011;65794;51.836;5.002;2023-03-14T00:36:04;4.38;;;0.93;;
48765;SDS011;65794;51.836;5.002;2023-03-14T00:38:32;5.88;;;1.35;;
48765;SDS011;65794;51.836;5.002;2023-03-14T00:40:59;10.82;;;1.05;;
48765;SDS011;65794;51.836;5.002;2023-03-14T00:43:29;6.80;;;1.08;;
48765;SDS011;65794;51.836;5.002;2023-03-14T00:45:56;10.77;;;1.60;;
48765;SDS011;65794;51.836;5.002;2023-03-14T00:48:26;6.53;;;1.05;;
48765;SDS011;65794;51.836;5.002;2023-03-14T00:50:52;14.30;;;1.48;;
48765;SDS011;65794;51.836;5.002;2023-03-14T00:53:19;6.43;;;0.52;;
48765;SDS011;65794;51.836;5.002;2023-03-14T00:55:46;9.32;;;1.35;;
48765;SDS011;65794;51.836;5.002;2023-03-14T00:58:13;13.10;;;1.38;;
48765;SDS011;65794;51.836;5.002;2023-03-14T01:00:41;6.22;;;1.15;;
48765;SDS011;65794;51.836;5.002;2023-03-14T01:03:09;11.48;;;1.50;;
48765;SDS011;65794;51.836;5.002;2023-03-14T01:05:36;8.88;;;1.13;;
48765;SDS011;65794;51.836;5.002;2023-03-14T01:08:04;6.05;;;0.80;;
48765;SDS011;65794;51.836;5.002;2023-03-14T01:10:33;13.88;;;1.42;;
48765;SDS011;65794;51.836;5.002;2023-03-14T01:12:59;7.15;;;1.13;;
48765;SDS011;65794;51.836;5.002;2023-03-14T01:15:27;10.13;;;1.25;;
48765;SDS011;65794;51.836;5.002;2023-03-14T01:17:55;8.95;;;1.10;;
48765;SDS011;65794;51.836;5.002;2023-03-14T01:20:22;6.88;;;1.30;;
48765;SDS011;65794;51.836;5.002;2023-03-14T01:22:49;8.07;;;1.08;;
48765;SDS011;65794;51.836;5.002;2023-03-14T01:25:16;13.05;;;1.42;;
48765;SDS011;65794;51.836;5.002;2023-03-14T01:27:44;7.68;;;1.02;;
48765;SDS011;65794;51.836;5.002;2023-03-14T01:30:11;12.13;;;1.48;;
48765;SDS011;65794;51.836;5.002;2023-03-14T01:32:38;12.90;;;1.20;;
48765;SDS011;65794;51.836;5.002;2023-03-14T01:35:06;10.98;;;1.27;;
48765;SDS011;65794;51.836;5.002;2023-03-14T01:37:34;11.65;;;1.75;;
48765;SDS011;65794;51.836;5.002;2023-03-14T01:40:02;10.48;;;2.03;;
48765;SDS011;65794;51.836;5.002;2023-03-14T01:42:30;10.30;;;1.75;;
48765;SDS011;65794;51.836;5.002;2023-03-14T01:44:58;12.38;;;1.20;;
48765;SDS011;65794;51.836;5.002;2023-03-14T01:47:28;11.98;;;1.40;;
48765;SDS011;65794;51.836;5.002;2023-03-14T01:50:00;10.38;;;1.17;;
48765;SDS011;65794;51.836;5.002;2023-03-14T01:52:34;7.20;;;1.60;;
48765;SDS011;65794;51.836;5.002;2023-03-14T01:55:06;10.65;;;1.55;;
48765;SDS011;65794;51.836;5.002;2023-03-14T01:57:37;8.68;;;1.38;;
48765;SDS011;65794;51.836;5.002;2023-03-14T02:00:10;9.65;;;1.65;;
48765;SDS011;65794;51.836;5.002;2023-03-14T02:02:46;8.52;;;1.40;;
48765;SDS011;65794;51.836;5.002;2023-03-14T02:05:20;13.13;;;1.90;;
48765;SDS011;65794;51.836;5.002;2023-03-14T02:07:55;15.90;;;2.05;;
48765;SDS011;65794;51.836;5.002;2023-03-14T02:10:27;12.93;;;1.75;;
48765;SDS011;65794;51.836;5.002;2023-03-14T02:12:56;7.28;;;1.52;;
48765;SDS011;65794;51.836;5.002;2023-03-14T02:15:56;9.25;;;1.70;;
48765;SDS011;65794;51.836;5.002;2023-03-14T02:18:50;18.25;;;2.47;;
48765;SDS011;65794;51.836;5.002;2023-03-14T02:24:27;11.65;;;1.77;;
48765;SDS011;65794;51.836;5.002;2023-03-14T02:27:09;11.90;;;2.08;;
48765;SDS011;65794;51.836;5.002;2023-03-14T02:30:03;9.35;;;1.83;;
48765;SDS011;65794;51.836;5.002;2023-03-14T02:32:29;6.75;;;1.75;;
48765;SDS011;65794;51.836;5.002;2023-03-14T02:34:58;13.63;;;2.63;;
48765;SDS011;65794;51.836;5.002;2023-03-14T02:37:27;12.77;;;2.53;;
48765;SDS011;65794;51.836;5.002;2023-03-14T02:39:55;8.65;;;2.17;;
48765;SDS011;65794;51.836;5.002;2023-03-14T02:42:22;9.98;;;1.95;;
48765;SDS011;65794;51.836;5.002;2023-03-14T02:44:53;17.00;;;2.10;;
48765;SDS011;65794;51.836;5.002;2023-03-14T02:47:22;18.40;;;2.20;;
48765;SDS011;65794;51.836;5.002;2023-03-14T02:49:53;12.00;;;2.15;;
48765;SDS011;65794;51.836;5.002;2023-03-14T02:52:22;12.73;;;1.88;;
48765;SDS011;65794;51.836;5.002;2023-03-14T02:54:48;13.13;;;1.85;;
48765;SDS011;65794;51.836;5.002;2023-03-14T02:57:16;11.60;;;1.70;;
48765;SDS011;65794;51.836;5.002;2023-03-14T02:59:43;11.23;;;1.48;;
48765;SDS011;65794;51.836;5.002;2023-03-14T03:02:14;13.95;;;2.17;;
48765;SDS011;65794;51.836;5.002;2023-03-14T03:04:41;10.25;;;1.45;;
48765;SDS011;65794;51.836;5.002;2023-03-14T03:07:08;7.97;;;1.58;;
48765;SDS011;65794;51.836;5.002;2023-03-14T03:09:36;13.05;;;2.05;;
48765;SDS011;65794;51.836;5.002;2023-03-14T03:12:04;13.80;;;1.92;;
48765;SDS011;65794;51.836;5.002;2023-03-14T03:14:31;16.63;;;2.28;;
48765;SDS011;65794;51.836;5.002;2023-03-14T03:17:02;8.90;;;1.90;;
48765;SDS011;65794;51.836;5.002;2023-03-14T03:19:29;9.88;;;1.52;;
48765;SDS011;65794;51.836;5.002;2023-03-14T03:21:56;12.43;;;1.83;;
48765;SDS011;65794;51.836;5.002;2023-03-14T03:24:23;12.70;;;1.65;;
48765;SDS011;65794;51.836;5.002;2023-03-14T03:26:50;10.20;;;1.77;;
48765;SDS011;65794;51.836;5.002;2023-03-14T03:29:17;11.70;;;2.08;;
48765;SDS011;65794;51.836;5.002;2023-03-14T03:31:44;12.57;;;1.70;;
48765;SDS011;65794;51.836;5.002;2023-03-14T03:34:12;13.30;;;2.45;;
48765;SDS011;65794;51.836;5.002;2023-03-14T03:36:40;8.57;;;1.83;;
48765;SDS011;65794;51.836;5.002;2023-03-14T03:39:07;9.60;;;1.42;;
48765;SDS011;65794;51.836;5.002;2023-03-14T03:41:34;8.65;;;1.73;;
48765;SDS011;65794;51.836;5.002;2023-03-14T03:44:02;12.40;;;1.95;;
48765;SDS011;65794;51.836;5.002;2023-03-14T03:46:29;13.38;;;2.20;;
48765;SDS011;65794;51.836;5.002;2023-03-14T03:48:56;9.30;;;1.85;;
48765;SDS011;65794;51.836;5.002;2023-03-14T03:51:25;11.75;;;1.48;;
48765;SDS011;65794;51.836;5.002;2023-03-14T03:53:52;6.00;;;1.65;;
48765;SDS011;65794;51.836;5.002;2023-03-14T03:56:26;13.80;;;2.08;;
48765;SDS011;65794;51.836;5.002;2023-03-14T03:58:53;12.50;;;2.30;;
48765;SDS011;65794;51.836;5.002;2023-03-14T04:01:20;6.47;;;1.42;;
48765;SDS011;65794;51.836;5.002;2023-03-14T04:03:49;10.82;;;2.00;;
48765;SDS011;65794;51.836;5.002;2023-03-14T04:06:18;10.52;;;1.92;;
48765;SDS011;65794;51.836;5.002;2023-03-14T04:08:47;6.55;;;1.58;;
48765;SDS011;65794;51.836;5.002;2023-03-14T04:11:52;14.02;;;1.70;;
48765;SDS011;65794;51.836;5.002;2023-03-14T04:14:19;11.55;;;1.77;;
48765;SDS011;65794;51.836;5.002;2023-03-14T04:16:47;9.13;;;1.70;;
48765;SDS011;65794;51.836;5.002;2023-03-14T04:19:18;6.97;;;1.25;;
48765;SDS011;65794;51.836;5.002;2023-03-14T04:21:46;9.75;;;1.60;;
48765;SDS011;65794;51.836;5.002;2023-03-14T04:24:15;11.63;;;1.88;;
48765;SDS011;65794;51.836;5.002;2023-03-14T04:26:45;9.27;;;1.38;;
48765;SDS011;65794;51.836;5.002;2023-03-14T04:29:12;8.98;;;1.30;;
48765;SDS011;65794;51.836;5.002;2023-03-14T04:31:41;14.80;;;1.40;;
48765;SDS011;65794;51.836;5.002;2023-03-14T04:34:09;7.80;;;1.70;;
48765;SDS011;65794;51.836;5.002;2023-03-14T04:36:42;8.35;;;1.38;;
48765;SDS011;65794;51.836;5.002;2023-03-14T04:39:14;3.13;;;0.85;;
48765;SDS011;65794;51.836;5.002;2023-03-14T04:41:49;6.32;;;1.48;;
48765;SDS011;65794;51.836;5.002;2023-03-14T04:44:17;6.38;;;1.23;;
48765;SDS011;65794;51.836;5.002;2023-03-14T04:46:44;5.97;;;1.38;;
48765;SDS011;65794;51.836;5.002;2023-03-14T04:49:12;5.97;;;1.35;;
48765;SDS011;65794;51.836;5.002;2023-03-14T04:51:39;7.55;;;1.35;;
48765;SDS011;65794;51.836;5.002;2023-03-14T04:54:08;4.68;;;1.33;;
48765;SDS011;65794;51.836;5.002;2023-03-14T04:56:35;8.90;;;1.75;;
48765;SDS011;65794;51.836;5.002;2023-03-14T04:59:04;9.32;;;1.23;;
48765;SDS011;65794;51.836;5.002;2023-03-14T05:01:33;5.45;;;1.60;;
48765;SDS011;65794;51.836;5.002;2023-03-14T05:04:18;7.10;;;2.03;;
48765;SDS011;65794;51.836;5.002;2023-03-14T05:07:10;11.73;;;2.33;;
48765;SDS011;65794;51.836;5.002;2023-03-14T05:09:52;10.27;;;2.78;;
48765;SDS011;65794;51.836;5.002;2023-03-14T05:12:22;7.93;;;2.88;;
48765;SDS011;65794;51.836;5.002;2023-03-14T05:14:52;7.68;;;3.13;;
48765;SDS011;65794;51.836;5.002;2023-03-14T05:17:32;13.70;;;3.55;;
48765;SDS011;65794;51.836;5.002;2023-03-14T05:20:22;8.10;;;3.42;;
48765;SDS011;65794;51.836;5.002;2023-03-14T05:23:11;12.77;;;3.70;;
48765;SDS011;65794;51.836;5.002;2023-03-14T05:25:56;9.90;;;3.92;;
48765;SDS011;65794;51.836;5.002;2023-03-14T05:28:32;15.60;;;4.07;;
48765;SDS011;65794;51.836;5.002;2023-03-14T05:31:11;11.60;;;3.78;;
48765;SDS011;65794;51.836;5.002;2023-03-14T05:34:05;11.68;;;4.45;;
48765;SDS011;65794;51.836;5.002;2023-03-14T05:36:38;18.30;;;5.15;;
48765;SDS011;65794;51.836;5.002;2023-03-14T05:39:37;14.55;;;4.82;;
48765;SDS011;65794;51.836;5.002;2023-03-14T05:42:19;14.60;;;5.13;;
48765;SDS011;65794;51.836;5.002;2023-03-14T05:44:56;13.90;;;5.03;;
48765;SDS011;65794;51.836;5.002;2023-03-14T05:47:42;15.45;;;5.20;;
48765;SDS011;65794;51.836;5.002;2023-03-14T05:50:20;16.83;;;5.68;;
48765;SDS011;65794;51.836;5.002;2023-03-14T05:52:56;18.02;;;6.43;;
48765;SDS011;65794;51.836;5.002;2023-03-14T05:55:38;19.98;;;7.15;;
48765;SDS011;65794;51.836;5.002;2023-03-14T05:58:26;15.10;;;6.97;;
48765;SDS011;65794;51.836;5.002;2023-03-14T06:01:16;16.58;;;7.15;;
48765;SDS011;65794;51.836;5.002;2023-03-14T06:04:01;18.70;;;7.03;;
48765;SDS011;65794;51.836;5.002;2023-03-14T06:06:28;16.00;;;6.82;;
48765;SDS011;65794;51.836;5.002;2023-03-14T06:08:57;20.05;;;7.82;;
48765;SDS011;65794;51.836;5.002;2023-03-14T06:11:24;18.65;;;7.18;;
48765;SDS011;65794;51.836;5.002;2023-03-14T06:13:51;22.20;;;8.25;;
48765;SDS011;65794;51.836;5.002;2023-03-14T06:16:18;16.55;;;6.68;;
48765;SDS011;65794;51.836;5.002;2023-03-14T06:18:45;17.55;;;7.30;;
48765;SDS011;65794;51.836;5.002;2023-03-14T06:21:18;18.00;;;7.32;;
48765;SDS011;65794;51.836;5.002;2023-03-14T06:23:47;15.65;;;6.13;;
48765;SDS011;65794;51.836;5.002;2023-03-14T06:26:14;13.88;;;3.92;;
48765;SDS011;65794;51.836;5.002;2023-03-14T06:28:42;9.80;;;3.58;;
48765;SDS011;65794;51.836;5.002;2023-03-14T06:31:09;2.60;;;1.10;;
48765;SDS011;65794;51.836;5.002;2023-03-14T06:36:12;4.20;;;1.02;;
48765;SDS011;65794;51.836;5.002;2023-03-14T06:38:42;2.80;;;0.50;;
48765;SDS011;65794;51.836;5.002;2023-03-14T06:41:09;3.65;;;0.50;;
48765;SDS011;65794;51.836;5.002;2023-03-14T06:43:40;2.47;;;0.70;;
48765;SDS011;65794;51.836;5.002;2023-03-14T06:46:08;3.65;;;0.40;;
48765;SDS011;65794;51.836;5.002;2023-03-14T06:48:37;3.55;;;0.68;;
48765;SDS011;65794;51.836;5.002;2023-03-14T06:51:06;3.10;;;0.65;;
48765;SDS011;65794;51.836;5.002;2023-03-14T06:53:39;4.32;;;0.68;;
48765;SDS011;65794;51.836;5.002;2023-03-14T06:56:06;1.73;;;0.45;;
48765;SDS011;65794;51.836;5.002;2023-03-14T06:58:34;6.82;;;0.60;;
48765;SDS011;65794;51.836;5.002;2023-03-14T07:01:03;6.50;;;0.90;;
48765;SDS011;65794;51.836;5.002;2023-03-14T07:03:37;7.93;;;0.90;;
48765;SDS011;65794;51.836;5.002;2023-03-14T07:06:04;4.45;;;0.75;;
48765;SDS011;65794;51.836;5.002;2023-03-14T07:08:32;6.10;;;0.80;;
48765;SDS011;65794;51.836;5.002;2023-03-14T07:11:01;10.38;;;0.98;;
48765;SDS011;65794;51.836;5.002;2023-03-14T07:13:28;7.30;;;1.63;;
48765;SDS011;65794;51.836;5.002;2023-03-14T07:16:06;5.95;;;0.88;;
48765;SDS011;65794;51.836;5.002;2023-03-14T07:18:35;9.85;;;1.48;;
48765;SDS011;65794;51.836;5.002;2023-03-14T07:21:05;4.85;;;0.85;;
48765;SDS011;65794;51.836;5.002;2023-03-14T07:23:33;7.88;;;0.95;;
48765;SDS011;65794;51.836;5.002;2023-03-14T07:26:00;9.20;;;1.13;;
48765;SDS011;65794;51.836;5.002;2023-03-14T07:28:29;5.72;;;0.70;;
48765;SDS011;65794;51.836;5.002;2023-03-14T07:31:07;4.88;;;0.52;;
48765;SDS011;65794;51.836;5.002;2023-03-14T07:33:36;3.80;;;0.50;;
48765;SDS011;65794;51.836;5.002;2023-03-14T07:36:03;2.00;;;0.77;;
48765;SDS011;65794;51.836;5.002;2023-03-14T07:38:31;4.97;;;0.73;;
48765;SDS011;65794;51.836;5.002;2023-03-14T07:41:16;4.50;;;0.60;;
48765;SDS011;65794;51.836;5.002;2023-03-14T07:43:59;6.47;;;0.88;;
48765;SDS011;65794;51.836;5.002;2023-03-14T07:46:26;4.40;;;0.55;;
48765;SDS011;65794;51.836;5.002;2023-03-14T07:48:53;9.85;;;1.15;;
48765;SDS011;65794;51.836;5.002;2023-03-14T07:51:20;7.40;;;0.90;;
48765;SDS011;65794;51.836;5.002;2023-03-14T07:53:47;9.55;;;1.08;;
48765;SDS011;65794;51.836;5.002;2023-03-14T07:56:14;10.27;;;0.90;;
48765;SDS011;65794;51.836;5.002;2023-03-14T07:58:41;8.55;;;1.08;;
48765;SDS011;65794;51.836;5.002;2023-03-14T08:01:08;10.27;;;1.20;;
48765;SDS011;65794;51.836;5.002;2023-03-14T08:03:35;8.50;;;1.33;;
48765;SDS011;65794;51.836;5.002;2023-03-14T08:06:02;6.22;;;1.08;;
48765;SDS011;65794;51.836;5.002;2023-03-14T08:08:29;7.75;;;1.02;;
48765;SDS011;65794;51.836;5.002;2023-03-14T08:10:58;18.63;;;1.23;;
48765;SDS011;65794;51.836;5.002;2023-03-14T08:13:28;8.32;;;1.10;;
48765;SDS011;65794;51.836;5.002;2023-03-14T08:15:55;6.50;;;1.08;;
48765;SDS011;65794;51.836;5.002;2023-03-14T08:18:24;11.77;;;0.82;;
48765;SDS011;65794;51.836;5.002;2023-03-14T08:20:51;9.20;;;1.40;;
48765;SDS011;65794;51.836;5.002;2023-03-14T08:23:18;5.13;;;0.93;;
48765;SDS011;65794;51.836;5.002;2023-03-14T08:25:45;2.30;;;0.80;;
48765;SDS011;65794;51.836;5.002;2023-03-14T08:28:14;4.35;;;0.90;;
48765;SDS011;65794;51.836;5.002;2023-03-14T08:30:41;9.57;;;0.68;;
48765;SDS011;65794;51.836;5.002;2023-03-14T08:33:12;4.53;;;0.68;;
48765;SDS011;65794;51.836;5.002;2023-03-14T08:35:39;4.53;;;0.80;;
48765;SDS011;65794;51.836;5.002;2023-03-14T08:38:06;6.93;;;1.45;;
48765;SDS011;65794;51.836;5.002;2023-03-14T08:40:33;11.52;;;1.65;;
48765;SDS011;65794;51.836;5.002;2023-03-14T08:43:02;7.18;;;1.60;;
48765;SDS011;65794;51.836;5.002;2023-03-14T08:45:29;11.93;;;1.98;;
48765;SDS011;65794;51.836;5.002;2023-03-14T08:47:57;8.25;;;1.50;;
48765;SDS011;65794;51.836;5.002;2023-03-14T08:50:24;6.22;;;0.70;;
48765;SDS011;65794;51.836;5.002;2023-03-14T08:52:51;1.17;;;0.32;;
48765;SDS011;65794;51.836;5.002;2023-03-14T08:55:18;1.95;;;0.45;;
48765;SDS011;65794;51.836;5.002;2023-03-14T08:57:45;4.18;;;0.40;;
48765;SDS011;65794;51.836;5.002;2023-03-14T09:00:12;1.48;;;0.50;;
48765;SDS011;65794;51.836;5.002;2023-03-14T09:02:41;2.67;;;0.60;;
48765;SDS011;65794;51.836;5.002;2023-03-14T09:05:10;7.78;;;0.57;;
48765;SDS011;65794;51.836;5.002;2023-03-14T09:07:37;3.55;;;0.52;;
48765;SDS011;65794;51.836;5.002;2023-03-14T09:10:05;1.40;;;0.40;;
48765;SDS011;65794;51.836;5.002;2023-03-14T09:12:32;3.95;;;0.50;;
48765;SDS011;65794;51.836;5.002;2023-03-14T09:14:59;2.47;;;0.43;;
48765;SDS011;65794;51.836;5.002;2023-03-14T09:17:26;3.75;;;0.57;;
48765;SDS011;65794;51.836;5.002;2023-03-14T09:19:53;3.28;;;0.55;;
48765;SDS011;65794;51.836;5.002;2023-03-14T09:22:20;3.70;;;0.50;;
48765;SDS011;65794;51.836;5.002;2023-03-14T09:24:47;3.85;;;0.47;;
48765;SDS011;65794;51.836;5.002;2023-03-14T09:27:14;6.90;;;1.00;;
48765;SDS011;65794;51.836;5.002;2023-03-14T09:29:41;4.72;;;0.80;;
48765;SDS011;65794;51.836;5.002;2023-03-14T09:32:08;4.60;;;0.75;;
48765;SDS011;65794;51.836;5.002;2023-03-14T09:34:35;6.03;;;1.10;;
48765;SDS011;65794;51.836;5.002;2023-03-14T09:37:02;5.30;;;0.75;;
48765;SDS011;65794;51.836;5.002;2023-03-14T09:39:29;7.22;;;0.85;;
48765;SDS011;65794;51.836;5.002;2023-03-14T09:41:56;11.80;;;1.50;;
48765;SDS011;65794;51.836;5.002;2023-03-14T09:44:25;10.40;;;1.70;;
48765;SDS011;65794;51.836;5.002;2023-03-14T09:46:54;13.30;;;1.13;;
48765;SDS011;65794;51.836;5.002;2023-03-14T09:49:25;5.82;;;1.30;;
48765;SDS011;65794;51.836;5.002;2023-03-14T09:51:54;9.07;;;1.20;;
48765;SDS011;65794;51.836;5.002;2023-03-14T09:54:32;12.13;;;1.45;;
48765;SDS011;65794;51.836;5.002;2023-03-14T09:57:02;11.25;;;1.73;;
48765;SDS011;65794;51.836;5.002;2023-03-14T09:59:29;13.80;;;2.17;;
48765;SDS011;65794;51.836;5.002;2023-03-14T10:01:58;20.08;;;1.92;;
48765;SDS011;65794;51.836;5.002;2023-03-14T10:04:26;12.48;;;1.63;;
48765;SDS011;65794;51.836;5.002;2023-03-14T10:06:54;11.55;;;1.50;;
48765;SDS011;65794;51.836;5.002;2023-03-14T10:09:22;11.23;;;1.38;;
48765;SDS011;65794;51.836;5.002;2023-03-14T10:11:55;10.20;;;1.55;;
48765;SDS011;65794;51.836;5.002;2023-03-14T10:14:30;5.88;;;0.90;;
48765;SDS011;65794;51.836;5.002;2023-03-14T10:17:04;18.45;;;2.30;;
48765;SDS011;65794;51.836;5.002;2023-03-14T10:19:31;14.10;;;1.80;;
48765;SDS011;65794;51.836;5.002;2023-03-14T10:22:00;12.82;;;1.75;;
48765;SDS011;65794;51.836;5.002;2023-03-14T10:24:28;16.13;;;1.77;;
48765;SDS011;65794;51.836;5.002;2023-03-14T10:29:53;11.23;;;1.42;;
48765;SDS011;65794;51.836;5.002;2023-03-14T10:32:29;23.63;;;2.22;;
48765;SDS011;65794;51.836;5.002;2023-03-14T10:37:31;8.07;;;1.40;;
48765;SDS011;65794;51.836;5.002;2023-03-14T10:39:58;20.13;;;2.90;;
48765;SDS011;65794;51.836;5.002;2023-03-14T10:42:32;15.55;;;1.70;;
48765;SDS011;65794;51.836;5.002;2023-03-14T10:45:02;13.32;;;2.92;;
48765;SDS011;65794;51.836;5.002;2023-03-14T10:47:30;15.07;;;1.70;;
48765;SDS011;65794;51.836;5.002;2023-03-14T10:50:19;13.65;;;1.83;;
48765;SDS011;65794;51.836;5.002;2023-03-14T10:55:27;17.70;;;2.17;;
48765;SDS011;65794;51.836;5.002;2023-03-14T10:57:54;23.15;;;2.47;;
48765;SDS011;65794;51.836;5.002;2023-03-14T11:00:22;14.02;;;1.63;;
48765;SDS011;65794;51.836;5.002;2023-03-14T11:02:53;20.10;;;2.40;;
48765;SDS011;65794;51.836;5.002;2023-03-14T11:05:33;16.80;;;2.38;;
48765;SDS011;65794;51.836;5.002;2023-03-14T11:08:02;19.70;;;2.35;;
48765;SDS011;65794;51.836;5.002;2023-03-14T11:23:32;18.35;;;3.00;;
48765;SDS011;65794;51.836;5.002;2023-03-14T11:28:39;13.30;;;1.85;;
48765;SDS011;65794;51.836;5.002;2023-03-14T11:31:28;21.75;;;3.13;;
48765;SDS011;65794;51.836;5.002;2023-03-14T11:36:44;21.30;;;2.70;;
48765;SDS011;65794;51.836;5.002;2023-03-14T11:39:16;18.95;;;3.28;;
48765;SDS011;65794;51.836;5.002;2023-03-14T11:41:45;14.13;;;1.88;;
48765;SDS011;65794;51.836;5.002;2023-03-14T11:44:20;19.35;;;2.03;;
48765;SDS011;65794;51.836;5.002;2023-03-14T11:51:50;10.85;;;2.20;;
48765;SDS011;65794;51.836;5.002;2023-03-14T11:54:21;14.52;;;2.55;;
48765;SDS011;65794;51.836;5.002;2023-03-14T11:56:58;9.20;;;1.60;;
48765;SDS011;65794;51.836;5.002;2023-03-14T11:59:32;10.35;;;1.95;;
48765;SDS011;65794;51.836;5.002;2023-03-14T12:02:09;20.52;;;1.92;;
48765;SDS011;65794;51.836;5.002;2023-03-14T12:07:08;7.45;;;1.30;;
48765;SDS011;65794;51.836;5.002;2023-03-14T12:09:40;7.95;;;1.73;;
48765;SDS011;65794;51.836;5.002;2023-03-14T12:12:10;7.75;;;1.20;;
48765;SDS011;65794;51.836;5.002;2023-03-14T12:14:52;9.00;;;1.23;;
48765;SDS011;65794;51.836;5.002;2023-03-14T12:17:20;11.02;;;1.77;;
48765;SDS011;65794;51.836;5.002;2023-03-14T12:19:48;8.77;;;0.93;;
48765;SDS011;65794;51.836;5.002;2023-03-14T12:22:27;7.63;;;1.25;;
48765;SDS011;65794;51.836;5.002;2023-03-14T12:24:57;13.77;;;1.63;;
48765;SDS011;65794;51.836;5.002;2023-03-14T12:27:42;12.48;;;1.25;;
48765;SDS011;65794;51.836;5.002;2023-03-14T12:30:24;17.05;;;1.23;;
48765;SDS011;65794;51.836;5.002;2023-03-14T12:38:13;14.63;;;1.35;;
48765;SDS011;65794;51.836;5.002;2023-03-14T12:40:55;13.32;;;1.75;;
48765;SDS011;65794;51.836;5.002;2023-03-14T12:48:35;11.93;;;1.27;;
48765;SDS011;65794;51.836;5.002;2023-03-14T12:51:14;6.18;;;1.10;;
48765;SDS011;65794;51.836;5.002;2023-03-14T12:56:42;9.02;;;1.02;;
48765;SDS011;65794;51.836;5.002;2023-03-14T13:02:01;8.70;;;1.23;;
48765;SDS011;65794;51.836;5.002;2023-03-14T13:04:34;10.77;;;1.23;;
48765;SDS011;65794;51.836;5.002;2023-03-14T13:07:20;10.98;;;1.13;;
48765;SDS011;65794;51.836;5.002;2023-03-14T13:10:16;5.53;;;1.10;;
48765;SDS011;65794;51.836;5.002;2023-03-14T13:12:48;11.23;;;1.27;;
48765;SDS011;65794;51.836;5.002;2023-03-14T13:17:46;10.15;;;1.10;;
48765;SDS011;65794;51.836;5.002;2023-03-14T13:20:16;6.60;;;1.10;;
48765;SDS011;65794;51.836;5.002;2023-03-14T13:22:46;8.05;;;0.90;;
48765;SDS011;65794;51.836;5.002;2023-03-14T13:25:13;8.25;;;1.20;;
48765;SDS011;65794;51.836;5.002;2023-03-14T13:27:40;12.70;;;1.08;;
48765;SDS011;65794;51.836;5.002;2023-03-14T13:32:46;4.90;;;1.10;;
48765;SDS011;65794;51.836;5.002;2023-03-14T13:35:15;10.43;;;1.35;;
48765;SDS011;65794;51.836;5.002;2023-03-14T13:37:42;8.32;;;1.10;;
48765;SDS011;65794;51.836;5.002;2023-03-14T13:40:18;6.47;;;1.20;;
48765;SDS011;65794;51.836;5.002;2023-03-14T13:42:45;13.02;;;1.30;;
48765;SDS011;65794;51.836;5.002;2023-03-14T13:45:13;6.07;;;1.13;;
48765;SDS011;65794;51.836;5.002;2023-03-14T13:47:39;7.55;;;0.88;;
48765;SDS011;65794;51.836;5.002;2023-03-14T13:50:16;6.82;;;0.75;;
48765;SDS011;65794;51.836;5.002;2023-03-14T13:52:44;7.70;;;0.93;;
48765;SDS011;65794;51.836;5.002;2023-03-14T13:55:17;5.80;;;1.10;;
48765;SDS011;65794;51.836;5.002;2023-03-14T14:00:44;14.05;;;1.02;;
48765;SDS011;65794;51.836;5.002;2023-03-14T14:03:04;6.78;;;0.80;;
48765;SDS011;65794;51.836;5.002;2023-03-14T14:05:36;5.63;;;1.10;;
48765;SDS011;65794;51.836;5.002;2023-03-14T14:08:06;11.50;;;1.15;;
48765;SDS011;65794;51.836;5.002;2023-03-14T14:10:35;6.30;;;0.90;;
48765;SDS011;65794;51.836;5.002;2023-03-14T14:13:03;9.40;;;1.00;;
48765;SDS011;65794;51.836;5.002;2023-03-14T14:15:33;5.30;;;1.00;;
48765;SDS011;65794;51.836;5.002;2023-03-14T14:18:03;14.00;;;1.15;;
48765;SDS011;65794;51.836;5.002;2023-03-14T14:20:36;5.28;;;0.88;;
48765;SDS011;65794;51.836;5.002;2023-03-14T14:23:05;10.27;;;0.95;;
48765;SDS011;65794;51.836;5.002;2023-03-14T14:25:33;7.63;;;0.90;;
48765;SDS011;65794;51.836;5.002;2023-03-14T14:28:13;3.17;;;0.70;;
48765;SDS011;65794;51.836;5.002;2023-03-14T14:30:40;13.23;;;0.80;;
48765;SDS011;65794;51.836;5.002;2023-03-14T14:33:18;9.48;;;0.77;;
48765;SDS011;65794;51.836;5.002;2023-03-14T14:35:56;6.20;;;0.88;;
48765;SDS011;65794;51.836;5.002;2023-03-14T14:38:24;9.13;;;1.50;;
48765;SDS011;65794;51.836;5.002;2023-03-14T14:40:52;11.48;;;0.80;;
48765;SDS011;65794;51.836;5.002;2023-03-14T14:43:27;6.95;;;1.08;;
48765;SDS011;65794;51.836;5.002;2023-03-14T14:45:54;8.63;;;1.13;;
48765;SDS011;65794;51.836;5.002;2023-03-14T14:48:23;5.22;;;1.40;;
48765;SDS011;65794;51.836;5.002;2023-03-14T14:50:55;5.78;;;0.80;;
48765;SDS011;65794;51.836;5.002;2023-03-14T14:55:52;8.73;;;1.10;;
48765;SDS011;65794;51.836;5.002;2023-03-14T15:00:56;11.60;;;0.70;;
48765;SDS011;65794;51.836;5.002;2023-03-14T15:03:25;10.20;;;1.17;;
48765;SDS011;65794;51.836;5.002;2023-03-14T15:05:53;10.15;;;1.02;;
48765;SDS011;65794;51.836;5.002;2023-03-14T15:08:21;9.60;;;1.00;;
48765;SDS011;65794;51.836;5.002;2023-03-14T15:10:48;8.15;;;1.10;;
48765;SDS011;65794;51.836;5.002;2023-03-14T15:13:15;5.70;;;0.77;;
48765;SDS011;65794;51.836;5.002;2023-03-14T15:15:42;8.05;;;1.55;;
48765;SDS011;65794;51.836;5.002;2023-03-14T15:18:14;6.38;;;0.80;;
48765;SDS011;65794;51.836;5.002;2023-03-14T15:20:42;4.80;;;0.70;;
48765;SDS011;65794;51.836;5.002;2023-03-14T15:23:10;6.47;;;1.02;;
48765;SDS011;65794;51.836;5.002;2023-03-14T15:25:37;6.93;;;1.02;;
48765;SDS011;65794;51.836;5.002;2023-03-14T15:28:22;3.25;;;0.60;;
48765;SDS011;65794;51.836;5.002;2023-03-14T15:30:49;10.88;;;0.90;;
48765;SDS011;65794;51.836;5.002;2023-03-14T15:33:16;6.90;;;0.90;;
48765;SDS011;65794;51.836;5.002;2023-03-14T15:35:44;7.35;;;0.80;;
48765;SDS011;65794;51.836;5.002;2023-03-14T15:38:11;4.50;;;0.75;;
48765;SDS011;65794;51.836;5.002;2023-03-14T15:40:38;4.82;;;0.63;;
48765;SDS011;65794;51.836;5.002;2023-03-14T15:43:06;9.75;;;1.05;;
48765;SDS011;65794;51.836;5.002;2023-03-14T15:45:33;8.63;;;0.90;;
48765;SDS011;65794;51.836;5.002;2023-03-14T15:48:00;7.57;;;0.95;;
48765;SDS011;65794;51.836;5.002;2023-03-14T15:50:27;7.45;;;1.02;;
48765;SDS011;65794;51.836;5.002;2023-03-14T15:52:54;12.30;;;0.98;;
48765;SDS011;65794;51.836;5.002;2023-03-14T15:55:22;5.82;;;0.60;;
48765;SDS011;65794;51.836;5.002;2023-03-14T15:57:49;5.30;;;1.20;;
48765;SDS011;65794;51.836;5.002;2023-03-14T16:00:17;7.47;;;0.90;;
48765;SDS011;65794;51.836;5.002;2023-03-14T16:02:45;8.27;;;0.75;;
48765;SDS011;65794;51.836;5.002;2023-03-14T16:05:12;9.55;;;0.90;;
48765;SDS011;65794;51.836;5.002;2023-03-14T16:07:39;8.25;;;0.80;;
48765;SDS011;65794;51.836;5.002;2023-03-14T16:10:06;9.95;;;1.00;;